createdAt,value
2018-02-09T00:00:24.504Z,5.77
2018-02-09T00:02:53.867Z,6.02
2018-02-09T00:05:23.109Z,6.17
2018-02-09T00:07:52.944Z,6.11
2018-02-09T00:10:22.554Z,6.27
2018-02-09T00:12:52.045Z,6.35
2018-02-09T00:15:21.562Z,6.07
2018-02-09T00:17:51.165Z,6.00
2018-02-09T00:20:21.201Z,5.94
2018-02-09T00:22:54.541Z,5.95
2018-02-09T00:25:23.729Z,5.89
2018-02-09T00:27:53.245Z,6.12
2018-02-09T00:30:22.760Z,6.14
2018-02-09T00:32:52.257Z,6.00
2018-02-09T00:35:21.697Z,5.94
2018-02-09T00:37:51.104Z,5.91
2018-02-09T00:40:20.401Z,5.95
2018-02-09T00:42:49.666Z,5.87
2018-02-09T00:45:19.414Z,6.03
2018-02-09T00:47:49.066Z,6.08
2018-02-09T00:50:18.808Z,6.02
2018-02-09T00:52:48.345Z,6.06
2018-02-09T00:55:18.034Z,6.17
2018-02-09T00:57:47.528Z,6.23
2018-02-09T01:00:16.938Z,6.28
2018-02-09T01:02:46.565Z,6.25
2018-02-09T01:05:16.249Z,6.38
2018-02-09T01:07:45.541Z,6.48
2018-02-09T01:10:14.863Z,6.58
2018-02-09T01:12:44.527Z,6.58
2018-02-09T01:15:14.233Z,6.55
2018-02-09T01:17:43.770Z,6.49
2018-02-09T01:20:13.005Z,6.40
2018-02-09T01:22:42.464Z,6.44
2018-02-09T01:25:11.948Z,6.44
2018-02-09T01:27:41.492Z,6.46
2018-02-09T01:30:10.751Z,6.44
2018-02-09T01:32:40.200Z,6.39
2018-02-09T01:35:09.505Z,7.09
2018-02-09T01:37:38.650Z,6.83
2018-02-09T01:40:08.200Z,6.61
2018-02-09T01:42:37.689Z,6.41
2018-02-09T01:45:07.038Z,6.50
2018-02-09T01:47:36.570Z,6.43
2018-02-09T01:50:16.571Z,6.34
2018-02-09T01:52:46.244Z,6.33
2018-02-09T01:55:15.745Z,6.47
2018-02-09T01:57:45.018Z,6.30
2018-02-09T02:00:14.425Z,6.23
2018-02-09T02:02:44.817Z,6.24
2018-02-09T02:05:14.252Z,6.73
2018-02-09T02:07:43.806Z,6.71
2018-02-09T02:10:13.238Z,6.45
2018-02-09T02:12:42.922Z,6.33
2018-02-09T02:15:12.382Z,6.39
2018-02-09T02:17:42.119Z,6.54
2018-02-09T02:20:11.893Z,6.63
2018-02-09T02:22:41.385Z,6.59
2018-02-09T02:25:10.541Z,6.61
2018-02-09T02:27:40.366Z,6.60
2018-02-09T02:30:09.980Z,6.63
2018-02-09T02:32:39.274Z,6.68
2018-02-09T02:35:08.719Z,6.77
2018-02-09T02:37:38.292Z,6.73
2018-02-09T02:40:07.753Z,6.84
2018-02-09T02:42:37.091Z,7.00
2018-02-09T02:45:06.529Z,7.10
2018-02-09T02:47:35.764Z,7.04
2018-02-09T02:50:05.213Z,7.16
2018-02-09T02:52:34.644Z,6.95
2018-02-09T02:55:05.270Z,6.79
2018-02-09T02:57:34.850Z,6.70
2018-02-09T03:00:04.284Z,6.95
2018-02-09T03:02:33.650Z,6.76
2018-02-09T03:05:03.306Z,6.56
2018-02-09T03:07:32.567Z,6.37
2018-02-09T03:10:02.030Z,6.31
2018-02-09T03:12:31.619Z,6.32
2018-02-09T03:15:01.252Z,6.29
2018-02-09T03:17:30.746Z,6.25
2018-02-09T03:20:00.183Z,6.23
2018-02-09T03:22:29.505Z,6.34
2018-02-09T03:24:59.065Z,6.21
2018-02-09T03:27:28.774Z,6.04
2018-02-09T03:29:58.259Z,6.04
2018-02-09T03:32:27.588Z,6.31
2018-02-09T03:34:57.269Z,6.36
2018-02-09T03:37:26.811Z,6.37
2018-02-09T03:39:57.349Z,6.24
2018-02-09T03:42:27.120Z,6.04
2018-02-09T03:44:56.152Z,6.02
2018-02-09T03:47:25.882Z,5.88
2018-02-09T03:49:55.510Z,5.76
2018-02-09T03:52:24.988Z,5.80
2018-02-09T03:54:54.648Z,5.81
2018-02-09T03:57:24.392Z,5.92
2018-02-09T03:59:53.762Z,5.94
2018-02-09T04:02:23.276Z,5.82
2018-02-09T04:04:52.994Z,5.93
2018-02-09T04:07:22.304Z,5.94
2018-02-09T04:09:51.432Z,5.76
2018-02-09T04:12:20.892Z,5.86
2018-02-09T04:14:50.415Z,5.79
2018-02-09T04:17:20.056Z,5.68
2018-02-09T04:19:49.795Z,5.70
2018-02-09T04:22:19.021Z,5.70
2018-02-09T04:24:48.026Z,5.62
2018-02-09T04:27:17.273Z,5.65
2018-02-09T04:29:46.817Z,5.62
2018-02-09T04:32:16.336Z,5.56
2018-02-09T04:34:45.868Z,5.52
2018-02-09T04:37:15.580Z,5.52
2018-02-09T04:39:44.725Z,5.50
2018-02-09T04:42:13.960Z,5.60
2018-02-09T04:44:43.246Z,5.58
2018-02-09T04:47:12.605Z,5.57
2018-02-09T04:49:45.023Z,5.50
2018-02-09T04:52:14.436Z,5.44
2018-02-09T04:54:43.813Z,5.43
2018-02-09T04:57:13.437Z,5.44
2018-02-09T04:59:43.052Z,5.37
2018-02-09T05:02:12.605Z,5.33
2018-02-09T05:04:41.993Z,5.30
2018-02-09T05:07:11.469Z,5.37
2018-02-09T05:09:40.861Z,5.22
2018-02-09T05:12:10.281Z,5.23
2018-02-09T05:14:39.721Z,5.16
2018-02-09T05:17:09.009Z,5.20
2018-02-09T05:19:38.684Z,5.69
2018-02-09T05:22:07.979Z,5.94
2018-02-09T05:24:37.409Z,6.07
2018-02-09T05:27:07.010Z,5.94
2018-02-09T05:29:36.307Z,5.94
2018-02-09T05:32:05.610Z,5.69
2018-02-09T05:34:35.167Z,5.67
2018-02-09T05:37:04.572Z,5.60
2018-02-09T05:39:33.915Z,5.55
2018-02-09T05:42:03.403Z,5.56
2018-02-09T05:44:32.909Z,5.56
2018-02-09T05:47:02.293Z,7.06
2018-02-09T05:49:31.590Z,7.08
2018-02-09T05:52:01.332Z,6.51
2018-02-09T05:54:30.954Z,6.23
2018-02-09T05:57:00.808Z,6.24
2018-02-09T05:59:30.393Z,6.30
2018-02-09T06:01:59.747Z,5.86
2018-02-09T06:04:29.074Z,5.83
2018-02-09T06:06:58.289Z,6.26
2018-02-09T06:09:27.885Z,6.02
2018-02-09T06:11:57.565Z,5.93
2018-02-09T06:14:26.625Z,5.98
2018-02-09T06:16:55.811Z,6.05
2018-02-09T06:19:25.459Z,6.52
2018-02-09T06:21:54.598Z,6.30
2018-02-09T06:24:23.714Z,6.29
2018-02-09T06:26:52.993Z,6.24
2018-02-09T06:29:22.349Z,6.02
2018-02-09T06:31:51.766Z,6.16
2018-02-09T06:34:21.104Z,6.08
2018-02-09T06:36:50.710Z,6.74
2018-02-09T06:39:20.291Z,6.79
2018-02-09T06:41:49.601Z,6.40
2018-02-09T06:44:18.672Z,6.35
2018-02-09T06:46:47.987Z,6.34
2018-02-09T06:49:16.855Z,6.44
2018-02-09T06:51:46.108Z,6.40
2018-02-09T06:54:15.536Z,6.46
2018-02-09T06:56:44.690Z,6.53
2018-02-09T06:59:13.969Z,6.62
2018-02-09T07:01:43.169Z,6.72
2018-02-09T07:04:12.305Z,6.78
2018-02-09T07:06:41.478Z,6.72
2018-02-09T07:09:10.772Z,6.71
2018-02-09T07:11:39.799Z,6.77
2018-02-09T07:14:09.528Z,6.86
2018-02-09T07:16:38.849Z,7.06
2018-02-09T07:19:08.038Z,7.03
2018-02-09T07:21:37.029Z,7.08
2018-02-09T07:24:06.657Z,7.16
2018-02-09T07:26:36.126Z,7.30
2018-02-09T07:29:05.269Z,7.18
2018-02-09T07:31:34.741Z,7.28
2018-02-09T07:34:04.307Z,7.63
2018-02-09T07:36:33.426Z,7.46
2018-02-09T07:39:02.762Z,7.44
2018-02-09T07:41:31.665Z,7.43
2018-02-09T07:44:00.766Z,7.50
2018-02-09T07:46:30.342Z,7.44
2018-02-09T07:48:59.313Z,7.56
2018-02-09T07:51:28.873Z,7.55
2018-02-09T07:53:58.530Z,7.68
2018-02-09T07:56:27.688Z,7.89
2018-02-09T07:58:57.084Z,8.07
2018-02-09T08:01:26.195Z,8.04
2018-02-09T08:03:55.657Z,8.09
2018-02-09T08:06:25.157Z,8.25
2018-02-09T08:08:54.526Z,8.45
2018-02-09T08:11:23.891Z,8.46
2018-02-09T08:13:53.161Z,8.54
2018-02-09T08:16:22.845Z,8.41
2018-02-09T08:18:52.431Z,8.44
2018-02-09T08:21:21.707Z,8.60
2018-02-09T08:23:51.467Z,8.60
2018-02-09T08:26:20.864Z,8.66
2018-02-09T08:28:50.526Z,8.76
2018-02-09T08:31:19.809Z,8.93
2018-02-09T08:33:49.309Z,9.06
2018-02-09T08:36:19.098Z,9.05
2018-02-09T08:38:48.721Z,9.12
2018-02-09T08:41:18.302Z,9.31
2018-02-09T08:43:47.730Z,9.35
2018-02-09T08:46:17.491Z,9.63
2018-02-09T08:48:46.820Z,9.62
2018-02-09T08:51:16.561Z,9.65
2018-02-09T08:53:46.194Z,9.68
2018-02-09T08:56:15.810Z,9.65
2018-02-09T08:58:45.682Z,9.70
2018-02-09T09:01:15.057Z,9.74
2018-02-09T09:03:44.593Z,9.67
2018-02-09T09:06:13.916Z,9.72
2018-02-09T09:08:43.238Z,9.84
2018-02-09T09:11:12.909Z,9.92
2018-02-09T09:13:42.436Z,9.93
2018-02-09T09:16:12.055Z,10.05
2018-02-09T09:18:41.298Z,10.09
2018-02-09T09:21:10.386Z,10.13
2018-02-09T09:23:39.740Z,10.26
2018-02-09T09:26:09.330Z,10.20
2018-02-09T09:28:38.780Z,10.56
2018-02-09T09:31:08.074Z,10.49
2018-02-09T09:33:37.238Z,10.49
2018-02-09T09:36:06.770Z,10.78
2018-02-09T09:38:36.049Z,10.83
2018-02-09T09:41:05.545Z,10.92
2018-02-09T09:43:34.749Z,11.18
2018-02-09T09:46:03.898Z,11.38
2018-02-09T09:48:33.586Z,11.30
2018-02-09T09:51:02.922Z,11.62
2018-02-09T09:53:31.929Z,11.50
2018-02-09T09:56:00.969Z,11.50
2018-02-09T09:58:30.426Z,11.67
2018-02-09T10:00:59.568Z,11.97
2018-02-09T10:03:29.157Z,11.73
2018-02-09T10:05:58.221Z,11.59
2018-02-09T10:08:27.558Z,11.65
2018-02-09T10:10:56.568Z,11.57
2018-02-09T10:13:26.083Z,11.64
2018-02-09T10:15:55.609Z,11.77
2018-02-09T10:18:25.029Z,11.68
2018-02-09T10:20:54.707Z,11.75
2018-02-09T10:23:23.938Z,11.91
2018-02-09T10:25:53.578Z,12.18
2018-02-09T10:28:22.634Z,11.97
2018-02-09T10:30:52.617Z,11.96
2018-02-09T10:33:21.930Z,11.87
2018-02-09T10:35:51.229Z,12.22
2018-02-09T10:38:20.625Z,12.08
2018-02-09T10:40:50.437Z,12.00
2018-02-09T10:43:19.895Z,12.04
2018-02-09T10:45:49.329Z,12.14
2018-02-09T10:48:18.641Z,12.19
2018-02-09T10:50:48.059Z,12.38
2018-02-09T10:53:17.165Z,12.46
2018-02-09T10:55:46.365Z,12.52
2018-02-09T10:58:15.517Z,12.35
2018-02-09T11:00:50.175Z,12.37
2018-02-09T11:03:19.318Z,12.26
2018-02-09T11:05:48.466Z,12.26
2018-02-09T11:08:17.620Z,12.30
2018-02-09T11:10:50.453Z,12.46
2018-02-09T11:13:20.074Z,12.63
2018-02-09T11:15:49.261Z,12.65
2018-02-09T11:18:18.457Z,12.67
2018-02-09T11:20:47.608Z,12.52
2018-02-09T11:23:17.124Z,12.79
2018-02-09T11:25:46.740Z,12.62
2018-02-09T11:28:16.514Z,12.82
2018-02-09T11:30:45.831Z,12.53
2018-02-09T11:33:15.149Z,12.56
2018-02-09T11:35:44.461Z,12.56
2018-02-09T11:38:14.192Z,12.55
2018-02-09T11:40:43.274Z,12.71
2018-02-09T11:43:12.489Z,12.56
2018-02-09T11:45:41.634Z,12.64
2018-02-09T11:48:10.797Z,12.65
2018-02-09T11:50:40.353Z,12.61
2018-02-09T11:53:09.821Z,12.65
2018-02-09T11:55:39.056Z,12.62
2018-02-09T11:58:08.344Z,12.74
2018-02-09T12:00:38.249Z,12.70
2018-02-09T12:05:45.826Z,13.25
2018-02-09T12:08:15.426Z,12.84
2018-02-09T12:10:44.904Z,13.02
2018-02-09T12:13:14.437Z,13.12
2018-02-09T12:15:43.837Z,13.18
2018-02-09T12:18:13.274Z,12.96
2018-02-09T12:20:42.599Z,13.07
2018-02-09T12:23:12.218Z,13.15
2018-02-09T12:25:41.517Z,13.32
2018-02-09T12:28:10.793Z,13.39
2018-02-09T12:30:40.050Z,13.26
2018-02-09T12:33:09.802Z,13.47
2018-02-09T12:35:39.673Z,13.42
2018-02-09T12:38:08.972Z,13.48
2018-02-09T12:40:38.260Z,13.54
2018-02-09T12:43:07.374Z,13.71
2018-02-09T12:45:36.421Z,13.74
2018-02-09T12:48:06.161Z,13.91
2018-02-09T12:50:35.615Z,13.75
2018-02-09T12:53:05.201Z,13.69
2018-02-09T12:55:34.778Z,13.61
2018-02-09T12:58:04.098Z,13.89
2018-02-09T13:00:33.420Z,13.67
2018-02-09T13:03:03.028Z,13.74
2018-02-09T13:05:32.211Z,13.77
2018-02-09T13:08:01.528Z,13.65
2018-02-09T13:10:30.570Z,13.56
2018-02-09T13:13:06.979Z,13.63
2018-02-09T13:15:36.385Z,13.56
2018-02-09T13:18:05.586Z,13.50
2018-02-09T13:20:35.556Z,13.54
2018-02-09T13:23:16.146Z,13.69
2018-02-09T13:25:45.358Z,13.88
2018-02-09T13:31:19.225Z,13.62
2018-02-09T13:33:48.903Z,13.67
2018-02-09T13:36:18.441Z,13.67
2018-02-09T13:38:48.383Z,13.81
2018-02-09T13:41:17.998Z,13.77
2018-02-09T13:43:47.161Z,13.96
2018-02-09T13:46:16.585Z,13.87
2018-02-09T13:48:46.038Z,13.78
2018-02-09T13:51:15.743Z,13.70
2018-02-09T13:53:45.618Z,13.86
2018-02-09T13:56:15.102Z,13.80
2018-02-09T13:58:44.973Z,14.35
2018-02-09T14:01:14.129Z,14.02
2018-02-09T14:03:43.525Z,14.11
2018-02-09T14:06:13.291Z,14.28
2018-02-09T14:08:42.945Z,14.04
2018-02-09T14:11:12.128Z,14.02
2018-02-09T14:13:41.480Z,14.15
2018-02-09T14:16:11.049Z,14.22
2018-02-09T14:18:40.193Z,14.07
2018-02-09T14:21:09.624Z,14.15
2018-02-09T14:23:38.865Z,14.40
2018-02-09T14:26:08.076Z,14.33
2018-02-09T14:28:37.313Z,14.10
2018-02-09T14:31:06.538Z,14.31
2018-02-09T14:33:36.134Z,14.17
2018-02-09T14:36:05.400Z,14.49
2018-02-09T14:38:35.042Z,14.20
2018-02-09T14:41:04.718Z,14.22
2018-02-09T14:43:34.389Z,13.95
2018-02-09T14:46:03.786Z,13.79
2018-02-09T14:48:33.522Z,13.94
2018-02-09T14:51:02.981Z,13.59
2018-02-09T14:53:32.546Z,13.37
2018-02-09T14:56:01.872Z,13.21
2018-02-09T14:58:31.292Z,12.38
2018-02-09T15:01:00.657Z,12.23
2018-02-09T15:03:30.303Z,11.99
2018-02-09T15:05:59.692Z,11.91
2018-02-09T15:08:29.320Z,11.74
2018-02-09T15:10:59.024Z,11.63
2018-02-09T15:13:28.550Z,11.55
2018-02-09T15:15:57.878Z,11.59
2018-02-09T15:18:27.058Z,11.34
2018-02-09T15:20:56.644Z,11.30
2018-02-09T15:23:26.342Z,11.61
2018-02-09T15:25:55.839Z,11.17
2018-02-09T15:28:25.185Z,11.07
2018-02-09T15:30:55.161Z,11.33
2018-02-09T15:33:24.804Z,11.12
2018-02-09T15:35:54.368Z,11.24
2018-02-09T15:38:23.993Z,11.08
2018-02-09T15:40:53.427Z,11.06
2018-02-09T15:43:22.998Z,11.05
2018-02-09T15:45:53.016Z,11.10
2018-02-09T15:48:22.470Z,11.10
2018-02-09T15:50:52.021Z,10.87
2018-02-09T15:53:21.681Z,10.72
2018-02-09T15:55:50.974Z,10.88
2018-02-09T15:58:20.698Z,10.85
2018-02-09T16:00:50.249Z,11.00
2018-02-09T16:03:19.497Z,10.81
2018-02-09T16:05:49.089Z,10.34
2018-02-09T16:08:19.362Z,10.48
2018-02-09T16:10:49.041Z,10.34
2018-02-09T16:13:18.349Z,10.42
2018-02-09T16:15:47.517Z,10.23
2018-02-09T16:18:17.408Z,10.29
2018-02-09T16:20:46.852Z,9.99
2018-02-09T16:23:16.268Z,9.98
2018-02-09T16:25:45.797Z,9.68
2018-02-09T16:28:15.442Z,9.63
2018-02-09T16:30:44.782Z,9.58
2018-02-09T16:33:14.048Z,9.75
2018-02-09T16:35:43.512Z,9.65
2018-02-09T16:38:12.885Z,10.27
2018-02-09T16:40:42.290Z,9.55
2018-02-09T16:43:11.824Z,9.90
2018-02-09T16:45:41.098Z,9.80
2018-02-09T16:48:10.321Z,9.65
2018-02-09T16:50:39.809Z,9.41
2018-02-09T16:53:09.069Z,9.33
2018-02-09T16:55:38.459Z,9.19
2018-02-09T16:58:07.809Z,9.55
2018-02-09T17:00:37.137Z,9.47
2018-02-09T17:03:06.686Z,9.30
2018-02-09T17:05:36.000Z,9.38
2018-02-09T17:08:05.346Z,9.24
2018-02-09T17:10:34.972Z,9.60
2018-02-09T17:13:04.314Z,9.49
2018-02-09T17:15:33.674Z,9.40
2018-02-09T17:18:03.191Z,9.40
2018-02-09T17:20:32.758Z,9.27
2018-02-09T17:23:02.096Z,9.31
2018-02-09T17:25:31.492Z,9.06
2018-02-09T17:28:00.616Z,9.21
2018-02-09T17:30:30.028Z,9.08
2018-02-09T17:32:59.308Z,8.97
2018-02-09T17:35:28.894Z,8.74
2018-02-09T17:37:57.986Z,8.96
2018-02-09T17:40:27.476Z,8.93
2018-02-09T17:42:56.998Z,8.89
2018-02-09T17:45:26.194Z,8.83
2018-02-09T17:47:55.242Z,8.72
2018-02-09T17:50:24.818Z,8.81
2018-02-09T17:52:54.151Z,8.90
2018-02-09T17:55:23.720Z,8.91
2018-02-09T17:57:52.738Z,9.06
2018-02-09T18:00:21.886Z,9.18
2018-02-09T18:02:51.402Z,9.07
2018-02-09T18:05:20.632Z,9.08
2018-02-09T18:07:49.876Z,8.96
2018-02-09T18:10:19.222Z,8.71
2018-02-09T18:12:48.614Z,8.71
2018-02-09T18:15:18.191Z,8.82
2018-02-09T18:17:47.473Z,8.88
2018-02-09T18:20:16.868Z,8.91
2018-02-09T18:22:46.173Z,8.75
2018-02-09T18:25:15.349Z,9.00
2018-02-09T18:27:44.815Z,8.94
2018-02-09T18:30:13.793Z,8.91
2018-02-09T18:32:42.821Z,8.92
2018-02-09T18:35:11.790Z,8.94
2018-02-09T18:37:41.018Z,8.96
2018-02-09T18:40:10.148Z,9.08
2018-02-09T18:42:39.230Z,9.07
2018-02-09T18:45:08.169Z,8.83
2018-02-09T18:47:37.456Z,8.95
2018-02-09T18:50:06.369Z,8.90
2018-02-09T18:52:35.353Z,9.13
2018-02-09T18:55:04.694Z,9.13
2018-02-09T18:57:34.102Z,9.21
2018-02-09T19:00:03.517Z,9.21
2018-02-09T19:02:33.177Z,9.22
2018-02-09T19:05:02.481Z,8.74
2018-02-09T19:07:31.652Z,9.09
2018-02-09T19:10:00.820Z,9.30
2018-02-09T19:12:30.554Z,9.32
2018-02-09T19:14:59.698Z,9.41
2018-02-09T19:17:29.331Z,9.43
2018-02-09T19:19:58.389Z,9.46
2018-02-09T19:22:27.366Z,9.43
2018-02-09T19:24:56.481Z,9.29
2018-02-09T19:27:25.557Z,9.00
2018-02-09T19:29:54.569Z,9.28
2018-02-09T19:32:23.849Z,9.73
2018-02-09T19:34:53.021Z,9.50
2018-02-09T19:37:22.045Z,9.38
2018-02-09T19:39:51.069Z,9.31
2018-02-09T19:42:20.618Z,9.28
2018-02-09T19:44:50.082Z,8.93
2018-02-09T19:47:19.095Z,9.10
2018-02-09T19:49:48.231Z,9.16
2018-02-09T19:52:17.294Z,9.16
2018-02-09T19:54:46.627Z,9.47
2018-02-09T19:57:15.865Z,9.44
2018-02-09T19:59:44.965Z,9.44
2018-02-09T20:02:14.034Z,9.36
2018-02-09T20:04:43.229Z,9.63
2018-02-09T20:07:12.318Z,9.60
2018-02-09T20:09:41.388Z,9.46
2018-02-09T20:12:10.716Z,9.38
2018-02-09T20:14:40.040Z,9.21
2018-02-09T20:17:08.992Z,8.76
2018-02-09T20:19:38.383Z,8.66
2018-02-09T20:22:07.475Z,8.66
2018-02-09T20:24:36.681Z,8.49
2018-02-09T20:27:05.912Z,8.50
2018-02-09T20:29:35.185Z,8.62
2018-02-09T20:32:04.297Z,8.78
2018-02-09T20:34:33.542Z,8.55
2018-02-09T20:37:02.921Z,8.57
2018-02-09T20:39:32.109Z,8.39
2018-02-09T20:42:01.436Z,8.46
2018-02-09T20:44:30.852Z,8.50
2018-02-09T20:47:00.199Z,8.66
2018-02-09T20:49:29.546Z,8.73
2018-02-09T20:51:59.176Z,8.91
2018-02-09T20:54:28.470Z,8.85
2018-02-09T20:56:57.856Z,8.89
2018-02-09T20:59:27.156Z,8.91
2018-02-09T21:01:56.438Z,8.91
2018-02-09T21:04:26.113Z,8.99
2018-02-09T21:06:55.228Z,8.68
2018-02-09T21:09:24.629Z,8.76
2018-02-09T21:11:53.946Z,8.65
2018-02-09T21:14:23.348Z,8.67
2018-02-09T21:16:52.829Z,8.71
2018-02-09T21:19:22.209Z,8.57
2018-02-09T21:21:51.698Z,8.47
2018-02-09T21:24:20.936Z,8.24
2018-02-09T21:26:50.667Z,8.39
2018-02-09T21:29:20.121Z,8.42
2018-02-09T21:31:49.236Z,8.36
2018-02-09T21:34:18.442Z,8.24
2018-02-09T21:36:47.850Z,8.33
2018-02-09T21:39:17.216Z,8.15
2018-02-09T21:41:46.409Z,8.03
2018-02-09T21:44:15.679Z,8.14
2018-02-09T21:46:44.946Z,8.08
2018-02-09T21:49:14.305Z,8.01
2018-02-09T21:51:44.006Z,8.03
2018-02-09T21:54:13.201Z,7.96
2018-02-09T21:56:42.722Z,8.15
2018-02-09T21:59:12.149Z,8.34
2018-02-09T22:01:41.597Z,8.13
2018-02-09T22:04:11.123Z,8.00
2018-02-09T22:06:40.416Z,7.97
2018-02-09T22:09:09.730Z,8.24
2018-02-09T22:11:39.569Z,8.05
2018-02-09T22:14:09.284Z,8.12
2018-02-09T22:16:39.151Z,8.03
2018-02-09T22:19:08.597Z,7.93
2018-02-09T22:21:37.945Z,7.70
2018-02-09T22:24:07.336Z,7.81
2018-02-09T22:26:36.922Z,7.57
2018-02-09T22:29:06.642Z,7.54
2018-02-09T22:31:35.953Z,7.67
2018-02-09T22:34:05.192Z,7.70
2018-02-09T22:36:35.216Z,7.70
2018-02-09T22:39:04.828Z,7.68
2018-02-09T22:41:34.331Z,7.67
2018-02-09T22:44:03.821Z,7.68
2018-02-09T22:46:33.418Z,7.61
2018-02-09T22:49:02.564Z,7.51
2018-02-09T22:51:31.953Z,7.39
2018-02-09T22:54:01.285Z,7.42
2018-02-09T22:56:30.638Z,7.85
2018-02-09T22:59:00.350Z,7.91
2018-02-09T23:01:29.637Z,7.67
2018-02-09T23:03:59.172Z,7.58
2018-02-09T23:06:28.097Z,7.58
2018-02-09T23:08:57.158Z,7.46
2018-02-09T23:11:26.550Z,8.12
2018-02-09T23:13:55.753Z,8.17
2018-02-09T23:16:24.932Z,8.00
2018-02-09T23:18:54.242Z,8.44
2018-02-09T23:21:23.550Z,8.58
2018-02-09T23:23:52.768Z,8.39
2018-02-09T23:26:22.356Z,8.36
2018-02-09T23:28:52.541Z,8.50
2018-02-09T23:31:21.752Z,8.61
2018-02-09T23:33:50.969Z,8.81
2018-02-09T23:36:20.068Z,8.70
2018-02-09T23:38:49.122Z,8.52
2018-02-09T23:41:18.697Z,8.46
2018-02-09T23:43:48.277Z,8.55
2018-02-09T23:46:18.255Z,8.53
2018-02-09T23:48:47.789Z,8.37
2018-02-09T23:51:16.884Z,8.83
2018-02-09T23:53:46.137Z,8.66
2018-02-09T23:56:15.375Z,8.65
2018-02-09T23:58:44.641Z,8.62
